DW7121 Weather Reports


time (UTC)temp
F
wind
direction
speed
knots
gust
knots
rain 1hr
in
rain 24hr
in
rain mn
in
humidity
%
barometer
mb
20220629041549 62 145 0.0 0.0 0.00 0.00 0.00 95 1014.1
20220629040100 62 165 0.0 0.0 0.00 0.00 0.00 94 1014.0
20220629034549 63 165 0.0 0.0 0.00 0.00 0.00 93 1013.9
20220629033049 63 181 0.0 0.0 0.00 0.00 0.00 92 1013.9
20220629031559 64 166 0.0 0.0 0.00 0.00 0.00 92 1013.5
20220629030048 64 162 0.0 0.0 0.00 0.00 0.00 90 1013.5
20220629024547 65 153 0.0 0.9 0.00 0.00 0.00 87 1013.4
20220629023049 66 172 0.0 0.0 0.00 0.00 0.00 83 1013.4
20220629021549 67 141 0.0 0.0 0.00 0.00 0.00 83 1013.4
20220629020047 68 216 0.0 0.0 0.00 0.00 0.00 81 1013.2
20220629014545 70 255 0.0 0.9 0.00 0.00 0.00 77 1013.3
20220629013045 71 203 0.0 0.0 0.00 0.00 0.00 75 1013.1
20220629011545 72 179 0.0 0.9 0.00 0.00 0.00 74 1013.1
20220629010043 72 211 0.0 0.9 0.00 0.00 0.00 74 1013.2
20220629004542 74 176 0.0 0.9 0.00 0.00 0.00 72 1013.1
20220629003042 75 187 0.0 3.5 0.00 0.00 0.00 72 1013.2
20220629001541 76 148 0.0 0.0 0.00 0.00 0.00 69 1013.4
20220629000039 77 158 0.0 1.7 0.00 0.00 0.00 69 1013.5
20220628234536 77 186 0.0 0.0 0.00 0.00 0.00 68 1013.6
20220628233035 77 157 0.0 4.3 0.00 0.00 0.00 66 1013.7
20220628231538 79 149 0.0 3.5 0.00 0.00 0.00 64 1013.8
20220628230032 80 141 0.0 1.7 0.00 0.00 0.00 63 1013.9
20220628224533 83 212 0.0 0.0 0.00 0.00 0.00 60 1014.1
20220628223034 82 174 0.0 0.0 0.00 0.00 0.00 60 1014.1
20220628221533 83 203 0.0 0.0 0.00 0.00 0.00 60 1014.4
20220628220026 80 283 0.0 2.6 0.00 0.00 0.00 63 1014.4
20220628214523 81 188 0.0 0.0 0.00 0.00 0.00 63 1014.4
20220628213022 79 276 0.0 4.3 0.00 0.00 0.00 65 1014.4
20220628211521 80 174 0.0 2.6 0.00 0.00 0.00 64 1014.6
20220628210018 78 264 0.0 5.2 0.00 0.00 0.00 69 1014.8
20220628204529 78 259 0.0 4.3 0.00 0.00 0.00 67 1014.9
20220628203017 79 309 0.0 5.2 0.00 0.00 0.00 68 1015.0
20220628201514 78 302 0.0 3.5 0.00 0.00 0.00 69 1015.1
20220628200012 75 293 0.0 2.6 0.00 0.00 0.00 73 1015.3
20220628194511 76 314 0.0 4.3 0.00 0.00 0.00 72 1015.4
20220628193012 75 291 0.0 4.3 0.00 0.00 0.00 73 1015.6
20220628191523 76 279 0.0 3.5 0.00 0.00 0.00 70 1015.6
20220628190007 75 286 0.0 2.6 0.00 0.00 0.00 71 1015.7
20220628184509 75 281 0.0 0.9 0.00 0.00 0.00 74 1015.7
20220628183003 73 276 0.0 3.5 0.00 0.00 0.00 76 1015.7
20220628181504 71 298 0.0 5.2 0.00 0.00 0.00 78 1015.8
20220628180103 72 286 0.0 5.2 0.00 0.00 0.00 77 1015.7
20220628174614 71 277 0.0 3.5 0.00 0.00 0.00 76 1015.7
20220628173058 73 326 0.0 3.5 0.00 0.00 0.00 77 1015.6
20220628171558 73 39 0.0 0.9 0.00 0.00 0.00 76 1015.6
20220628170057 71 297 0.0 2.6 0.00 0.00 0.00 79 1015.5
20220628164556 71 256 0.0 1.7 0.00 0.00 0.00 79 1015.6
20220628163055 72 298 0.0 1.7 0.00 0.00 0.00 77 1015.5
20220628161606 73 252 0.0 0.9 0.00 0.00 0.00 79 1015.5
20220628160051 72 252 0.0 0.0 0.00 0.00 0.00 82 1015.5
20220628154558 70 252 0.0 0.0 0.00 0.00 0.00 82 1015.5
20220628153049 69 276 0.0 0.0 0.00 0.00 0.00 83 1015.4
20220628151546 69 291 0.0 0.0 0.00 0.00 0.00 88 1015.3
20220628150051 65 291 0.0 0.9 0.00 0.00 0.00 88 1015.4
20220628144543 65 276 0.0 0.0 0.00 0.00 0.00 92 1015.1
20220628143044 65 297 0.0 0.0 0.00 0.00 0.00 92 1014.9
20220628141640 65 308 0.0 0.0 0.00 0.00 0.00 90 1015.0
20220628140039 63 142 0.0 0.0 0.00 0.00 0.00 91 1015.0
20220628134538 62 161 0.0 0.0 0.00 0.00 0.00 95 1014.6
20220628133037 61 160 0.0 0.0 0.00 0.00 0.00 94 1014.6
20220628131536 61 160 0.0 0.0 0.00 0.00 0.00 93 1014.4
20220628130036 61 161 0.0 0.0 0.00 0.00 0.00 93 1014.5
20220628124535 61 160 0.0 0.0 0.00 0.00 0.00 92 1014.4
20220628123038 62 160 0.0 0.0 0.00 0.00 0.00 90 1014.1
20220628121532 61 142 0.0 0.0 0.00 0.00 0.00 96 1014.1
20220628120032 60 167 0.0 0.0 0.00 0.00 0.00 97 1014.2
20220628114536 60 168 0.0 0.0 0.00 0.00 0.00 96 1014.4
20220628113028 60 167 0.0 0.0 0.00 0.00 0.00 96 1014.4
20220628111525 60 168 0.0 0.0 0.00 0.00 0.00 93 1014.4
20220628110024 60 168 0.0 0.0 0.00 0.00 0.00 94 1014.2
20220628104523 60 168 0.0 0.0 0.00 0.00 0.00 94 1014.4
20220628103022 61 167 0.0 0.0 0.00 0.00 0.00 94 1014.3
20220628101531 61 167 0.0 0.0 0.00 0.00 0.00 96 1014.4
20220628100019 61 168 0.0 0.0 0.00 0.00 0.00 96 1014.3
20220628094515 0 0.0 0.0 0.00 0.00 0.00 1014.6
20220628093011 61 172 0.0 0.0 0.00 0.00 0.00 98 1014.6
20220628091509 60 174 0.0 0.0 0.00 0.00 0.00 98 1014.8
20220628090009 60 184 0.0 0.0 0.00 0.00 0.00 96 1014.9
20220628084506 60 184 0.0 0.0 0.00 0.00 0.00 96 1014.9
20220628083005 60 184 0.0 0.0 0.00 0.00 0.00 94 1015.0
20220628081504 61 184 0.0 0.0 0.00 0.00 0.00 94 1015.0
20220628080004 62 184 0.0 0.0 0.00 0.00 0.00 92 1014.9
20220628074603 62 184 0.0 0.0 0.00 0.00 0.00 92 1015.0
20220628073059 63 145 0.0 0.0 0.00 0.00 0.00 89 1014.9
20220628071556 64 145 0.0 0.0 0.00 0.00 0.00 92 1014.7
20220628070054 63 145 0.0 0.0 0.00 0.00 0.00 93 1014.8
20220628064602 62 145 0.0 0.0 0.00 0.00 0.00 93 1014.9
20220628063058 62 145 0.0 0.0 0.00 0.00 0.00 94 1014.8
20220628061552 62 145 0.0 0.0 0.00 0.00 0.00 96 1014.9
20220628060051 62 145 0.0 0.0 0.00 0.00 0.00 96 1015.2
20220628054553 62 146 0.0 0.0 0.00 0.00 0.00 96 1015.1
20220628053051 62 145 0.0 0.0 0.00 0.00 0.00 96 1015.2
20220628051550 62 145 0.0 0.0 0.00 0.00 0.00 95 1015.1
20220628050049 63 183 0.0 0.0 0.00 0.00 0.00 94 1014.7
20220628044549 63 176 0.0 0.0 0.00 0.00 0.00 92 1014.7
20220628043048 64 162 0.0 0.0 0.00 0.00 0.00 92 1014.5